sensor_id;sensor_type;location;lat;lon;timestamp;P1;durP1;ratioP1;P2;durP2;ratioP2
57778;SDS011;43608;49.486;9.640;2023-06-10T00:00:29;5.20;;;4.70;;
57778;SDS011;43608;49.486;9.640;2023-06-10T00:01:01;5.25;;;4.68;;
57778;SDS011;43608;49.486;9.640;2023-06-10T00:01:31;5.60;;;4.70;;
57778;SDS011;43608;49.486;9.640;2023-06-10T00:02:04;5.25;;;4.75;;
57778;SDS011;43608;49.486;9.640;2023-06-10T00:02:34;5.60;;;4.80;;
57778;SDS011;43608;49.486;9.640;2023-06-10T00:03:05;4.82;;;4.32;;
57778;SDS011;43608;49.486;9.640;2023-06-10T00:03:35;4.78;;;4.30;;
57778;SDS011;43608;49.486;9.640;2023-06-10T00:04:06;4.95;;;4.45;;
57778;SDS011;43608;49.486;9.640;2023-06-10T00:04:36;4.97;;;4.47;;
57778;SDS011;43608;49.486;9.640;2023-06-10T00:05:07;5.30;;;4.80;;
57778;SDS011;43608;49.486;9.640;2023-06-10T00:05:41;5.10;;;4.60;;
57778;SDS011;43608;49.486;9.640;2023-06-10T00:06:11;5.28;;;4.45;;
57778;SDS011;43608;49.486;9.640;2023-06-10T00:06:42;4.80;;;4.30;;
57778;SDS011;43608;49.486;9.640;2023-06-10T00:07:13;5.20;;;4.65;;
57778;SDS011;43608;49.486;9.640;2023-06-10T00:07:44;4.90;;;4.40;;
57778;SDS011;43608;49.486;9.640;2023-06-10T00:08:16;5.00;;;4.50;;
57778;SDS011;43608;49.486;9.640;2023-06-10T00:08:50;5.57;;;4.68;;
57778;SDS011;43608;49.486;9.640;2023-06-10T00:09:21;5.32;;;4.55;;
57778;SDS011;43608;49.486;9.640;2023-06-10T00:09:51;4.95;;;4.45;;
57778;SDS011;43608;49.486;9.640;2023-06-10T00:10:22;5.35;;;4.85;;
57778;SDS011;43608;49.486;9.640;2023-06-10T00:10:54;4.80;;;4.30;;
57778;SDS011;43608;49.486;9.640;2023-06-10T00:11:24;5.03;;;4.53;;
57778;SDS011;43608;49.486;9.640;2023-06-10T00:11:55;4.93;;;4.43;;
57778;SDS011;43608;49.486;9.640;2023-06-10T00:12:26;5.30;;;4.80;;
57778;SDS011;43608;49.486;9.640;2023-06-10T00:12:59;5.68;;;4.60;;
57778;SDS011;43608;49.486;9.640;2023-06-10T00:13:29;4.63;;;4.20;;
57778;SDS011;43608;49.486;9.640;2023-06-10T00:14:00;5.25;;;4.57;;
57778;SDS011;43608;49.486;9.640;2023-06-10T00:14:30;5.00;;;4.50;;
57778;SDS011;43608;49.486;9.640;2023-06-10T00:15:00;5.32;;;4.75;;
57778;SDS011;43608;49.486;9.640;2023-06-10T00:15:31;4.85;;;4.35;;
57778;SDS011;43608;49.486;9.640;2023-06-10T00:16:01;5.30;;;4.70;;
57778;SDS011;43608;49.486;9.640;2023-06-10T00:16:32;5.93;;;4.72;;
57778;SDS011;43608;49.486;9.640;2023-06-10T00:17:02;5.65;;;4.43;;
57778;SDS011;43608;49.486;9.640;2023-06-10T00:17:33;5.35;;;4.68;;
57778;SDS011;43608;49.486;9.640;2023-06-10T00:18:03;4.95;;;4.45;;
57778;SDS011;43608;49.486;9.640;2023-06-10T00:18:34;5.03;;;4.53;;
57778;SDS011;43608;49.486;9.640;2023-06-10T00:19:08;4.68;;;4.28;;
57778;SDS011;43608;49.486;9.640;2023-06-10T00:19:39;5.00;;;4.50;;
57778;SDS011;43608;49.486;9.640;2023-06-10T00:20:11;4.85;;;4.30;;
57778;SDS011;43608;49.486;9.640;2023-06-10T00:20:41;4.93;;;4.43;;
57778;SDS011;43608;49.486;9.640;2023-06-10T00:21:12;5.68;;;4.97;;
57778;SDS011;43608;49.486;9.640;2023-06-10T00:21:43;5.50;;;4.50;;
57778;SDS011;43608;49.486;9.640;2023-06-10T00:22:14;5.18;;;4.57;;
57778;SDS011;43608;49.486;9.640;2023-06-10T00:22:45;4.60;;;4.20;;
57778;SDS011;43608;49.486;9.640;2023-06-10T00:23:16;5.05;;;4.55;;
57778;SDS011;43608;49.486;9.640;2023-06-10T00:23:47;5.20;;;4.70;;
57778;SDS011;43608;49.486;9.640;2023-06-10T00:24:18;5.07;;;4.57;;
57778;SDS011;43608;49.486;9.640;2023-06-10T00:24:48;4.88;;;4.38;;
57778;SDS011;43608;49.486;9.640;2023-06-10T00:25:19;5.38;;;4.78;;
57778;SDS011;43608;49.486;9.640;2023-06-10T00:25:49;4.82;;;4.32;;
57778;SDS011;43608;49.486;9.640;2023-06-10T00:26:20;4.63;;;4.10;;
57778;SDS011;43608;49.486;9.640;2023-06-10T00:26:51;5.10;;;4.47;;
57778;SDS011;43608;49.486;9.640;2023-06-10T00:27:22;5.60;;;4.75;;
57778;SDS011;43608;49.486;9.640;2023-06-10T00:27:52;5.20;;;4.70;;
57778;SDS011;43608;49.486;9.640;2023-06-10T00:28:23;4.85;;;4.35;;
57778;SDS011;43608;49.486;9.640;2023-06-10T00:28:53;4.90;;;4.40;;
57778;SDS011;43608;49.486;9.640;2023-06-10T00:29:23;4.82;;;4.32;;
57778;SDS011;43608;49.486;9.640;2023-06-10T00:29:54;4.57;;;4.15;;
57778;SDS011;43608;49.486;9.640;2023-06-10T00:30:24;4.82;;;4.32;;
57778;SDS011;43608;49.486;9.640;2023-06-10T00:30:55;4.70;;;4.25;;
57778;SDS011;43608;49.486;9.640;2023-06-10T00:31:25;5.28;;;4.78;;
57778;SDS011;43608;49.486;9.640;2023-06-10T00:32:00;4.78;;;4.28;;
57778;SDS011;43608;49.486;9.640;2023-06-10T00:32:30;4.78;;;4.28;;
57778;SDS011;43608;49.486;9.640;2023-06-10T00:33:01;5.57;;;4.82;;
57778;SDS011;43608;49.486;9.640;2023-06-10T00:33:31;4.88;;;4.38;;
57778;SDS011;43608;49.486;9.640;2023-06-10T00:34:02;5.10;;;4.55;;
57778;SDS011;43608;49.486;9.640;2023-06-10T00:34:32;5.25;;;4.75;;
57778;SDS011;43608;49.486;9.640;2023-06-10T00:35:03;4.93;;;4.43;;
57778;SDS011;43608;49.486;9.640;2023-06-10T00:35:34;4.80;;;4.30;;
57778;SDS011;43608;49.486;9.640;2023-06-10T00:36:04;5.15;;;4.20;;
57778;SDS011;43608;49.486;9.640;2023-06-10T00:36:35;4.68;;;4.13;;
57778;SDS011;43608;49.486;9.640;2023-06-10T00:37:05;4.72;;;4.18;;
57778;SDS011;43608;49.486;9.640;2023-06-10T00:37:36;5.05;;;4.55;;
57778;SDS011;43608;49.486;9.640;2023-06-10T00:38:06;5.25;;;4.60;;
57778;SDS011;43608;49.486;9.640;2023-06-10T00:38:37;4.63;;;4.22;;
57778;SDS011;43608;49.486;9.640;2023-06-10T00:39:07;5.05;;;4.55;;
57778;SDS011;43608;49.486;9.640;2023-06-10T00:39:38;4.88;;;4.35;;
57778;SDS011;43608;49.486;9.640;2023-06-10T00:40:08;5.00;;;4.50;;
57778;SDS011;43608;49.486;9.640;2023-06-10T00:40:39;5.25;;;4.75;;
57778;SDS011;43608;49.486;9.640;2023-06-10T00:41:13;4.90;;;4.40;;
57778;SDS011;43608;49.486;9.640;2023-06-10T00:41:44;4.97;;;4.47;;
57778;SDS011;43608;49.486;9.640;2023-06-10T00:42:14;5.00;;;4.50;;
57778;SDS011;43608;49.486;9.640;2023-06-10T00:42:45;4.80;;;4.30;;
57778;SDS011;43608;49.486;9.640;2023-06-10T00:43:15;5.40;;;4.30;;
57778;SDS011;43608;49.486;9.640;2023-06-10T00:43:45;4.88;;;4.40;;
57778;SDS011;43608;49.486;9.640;2023-06-10T00:44:16;5.10;;;4.60;;
57778;SDS011;43608;49.486;9.640;2023-06-10T00:44:46;5.07;;;4.57;;
57778;SDS011;43608;49.486;9.640;2023-06-10T00:45:16;5.03;;;4.53;;
57778;SDS011;43608;49.486;9.640;2023-06-10T00:45:47;5.65;;;4.45;;
57778;SDS011;43608;49.486;9.640;2023-06-10T00:46:17;6.10;;;4.78;;
57778;SDS011;43608;49.486;9.640;2023-06-10T00:46:48;5.10;;;4.53;;
57778;SDS011;43608;49.486;9.640;2023-06-10T00:47:21;4.75;;;4.35;;
57778;SDS011;43608;49.486;9.640;2023-06-10T00:47:52;4.97;;;4.47;;
57778;SDS011;43608;49.486;9.640;2023-06-10T00:48:22;4.97;;;4.20;;
57778;SDS011;43608;49.486;9.640;2023-06-10T00:48:53;5.43;;;4.75;;
57778;SDS011;43608;49.486;9.640;2023-06-10T00:49:23;5.25;;;4.75;;
57778;SDS011;43608;49.486;9.640;2023-06-10T00:49:54;5.07;;;4.53;;
57778;SDS011;43608;49.486;9.640;2023-06-10T00:50:25;5.10;;;4.60;;
57778;SDS011;43608;49.486;9.640;2023-06-10T00:50:56;5.72;;;4.80;;
57778;SDS011;43608;49.486;9.640;2023-06-10T00:51:28;5.70;;;5.10;;
57778;SDS011;43608;49.486;9.640;2023-06-10T00:51:58;5.25;;;4.75;;
57778;SDS011;43608;49.486;9.640;2023-06-10T00:52:29;5.35;;;4.80;;
57778;SDS011;43608;49.486;9.640;2023-06-10T00:53:02;5.10;;;4.60;;
57778;SDS011;43608;49.486;9.640;2023-06-10T00:53:33;6.03;;;5.22;;
57778;SDS011;43608;49.486;9.640;2023-06-10T00:54:03;5.18;;;4.63;;
57778;SDS011;43608;49.486;9.640;2023-06-10T00:54:34;5.20;;;4.70;;
57778;SDS011;43608;49.486;9.640;2023-06-10T00:55:05;6.13;;;4.75;;
57778;SDS011;43608;49.486;9.640;2023-06-10T00:55:37;6.57;;;5.43;;
57778;SDS011;43608;49.486;9.640;2023-06-10T00:56:08;6.28;;;5.05;;
57778;SDS011;43608;49.486;9.640;2023-06-10T00:56:39;5.93;;;5.28;;
57778;SDS011;43608;49.486;9.640;2023-06-10T00:57:09;6.00;;;5.40;;
57778;SDS011;43608;49.486;9.640;2023-06-10T00:57:40;6.05;;;5.25;;
57778;SDS011;43608;49.486;9.640;2023-06-10T00:58:10;5.78;;;5.18;;
57778;SDS011;43608;49.486;9.640;2023-06-10T00:58:41;6.35;;;5.75;;
57778;SDS011;43608;49.486;9.640;2023-06-10T00:59:12;6.47;;;5.88;;
57778;SDS011;43608;49.486;9.640;2023-06-10T00:59:46;7.00;;;5.97;;
57778;SDS011;43608;49.486;9.640;2023-06-10T01:00:18;6.20;;;5.60;;
57778;SDS011;43608;49.486;9.640;2023-06-10T01:00:49;7.28;;;6.00;;
57778;SDS011;43608;49.486;9.640;2023-06-10T01:01:19;6.45;;;5.82;;
57778;SDS011;43608;49.486;9.640;2023-06-10T01:01:50;6.53;;;5.90;;
57778;SDS011;43608;49.486;9.640;2023-06-10T01:02:22;6.53;;;5.80;;
57778;SDS011;43608;49.486;9.640;2023-06-10T01:02:52;6.70;;;6.00;;
57778;SDS011;43608;49.486;9.640;2023-06-10T01:03:23;6.95;;;6.22;;
57778;SDS011;43608;49.486;9.640;2023-06-10T01:03:54;7.32;;;6.55;;
57778;SDS011;43608;49.486;9.640;2023-06-10T01:04:25;6.90;;;6.20;;
57778;SDS011;43608;49.486;9.640;2023-06-10T01:04:55;6.88;;;6.18;;
57778;SDS011;43608;49.486;9.640;2023-06-10T01:05:26;6.72;;;6.03;;
57778;SDS011;43608;49.486;9.640;2023-06-10T01:05:59;7.10;;;6.40;;
57778;SDS011;43608;49.486;9.640;2023-06-10T01:06:39;6.88;;;6.18;;
57778;SDS011;43608;49.486;9.640;2023-06-10T01:07:25;7.05;;;6.30;;
57778;SDS011;43608;49.486;9.640;2023-06-10T01:08:45;6.75;;;6.05;;
57778;SDS011;43608;49.486;9.640;2023-06-10T01:09:35;6.82;;;6.13;;
57778;SDS011;43608;49.486;9.640;2023-06-10T01:10:15;7.28;;;6.55;;
57778;SDS011;43608;49.486;9.640;2023-06-10T01:10:50;7.43;;;6.63;;
57778;SDS011;43608;49.486;9.640;2023-06-10T01:11:28;7.85;;;6.53;;
57778;SDS011;43608;49.486;9.640;2023-06-10T01:12:49;7.38;;;6.68;;
57778;SDS011;43608;49.486;9.640;2023-06-10T01:13:26;7.70;;;6.75;;
57778;SDS011;43608;49.486;9.640;2023-06-10T01:14:02;7.65;;;6.80;;
57778;SDS011;43608;49.486;9.640;2023-06-10T01:14:37;7.55;;;6.75;;
57778;SDS011;43608;49.486;9.640;2023-06-10T01:15:15;7.15;;;6.45;;
57778;SDS011;43608;49.486;9.640;2023-06-10T01:15:47;8.13;;;6.90;;
57778;SDS011;43608;49.486;9.640;2023-06-10T01:16:21;7.53;;;6.80;;
57778;SDS011;43608;49.486;9.640;2023-06-10T01:16:52;7.75;;;6.88;;
57778;SDS011;43608;49.486;9.640;2023-06-10T01:17:23;7.43;;;6.63;;
57778;SDS011;43608;49.486;9.640;2023-06-10T01:18:04;7.55;;;6.72;;
57778;SDS011;43608;49.486;9.640;2023-06-10T01:18:39;6.80;;;6.10;;
57778;SDS011;43608;49.486;9.640;2023-06-10T01:19:12;7.30;;;6.60;;
57778;SDS011;43608;49.486;9.640;2023-06-10T01:19:54;7.47;;;6.68;;
57778;SDS011;43608;49.486;9.640;2023-06-10T01:20:26;7.50;;;6.70;;
57778;SDS011;43608;49.486;9.640;2023-06-10T01:20:59;6.95;;;6.13;;
57778;SDS011;43608;49.486;9.640;2023-06-10T01:21:30;6.80;;;6.10;;
57778;SDS011;43608;49.486;9.640;2023-06-10T01:22:01;6.95;;;6.18;;
57778;SDS011;43608;49.486;9.640;2023-06-10T01:22:31;7.35;;;6.15;;
57778;SDS011;43608;49.486;9.640;2023-06-10T01:23:06;6.30;;;5.68;;
57778;SDS011;43608;49.486;9.640;2023-06-10T01:23:37;6.68;;;5.97;;
57778;SDS011;43608;49.486;9.640;2023-06-10T01:24:07;6.50;;;5.80;;
57778;SDS011;43608;49.486;9.640;2023-06-10T01:24:38;7.05;;;5.90;;
57778;SDS011;43608;49.486;9.640;2023-06-10T01:25:10;6.30;;;5.70;;
57778;SDS011;43608;49.486;9.640;2023-06-10T01:25:44;6.50;;;5.80;;
57778;SDS011;43608;49.486;9.640;2023-06-10T01:26:20;6.35;;;5.53;;
57778;SDS011;43608;49.486;9.640;2023-06-10T01:26:55;6.68;;;5.60;;
57778;SDS011;43608;49.486;9.640;2023-06-10T01:27:32;6.50;;;5.47;;
57778;SDS011;43608;49.486;9.640;2023-06-10T01:28:11;5.80;;;5.20;;
57778;SDS011;43608;49.486;9.640;2023-06-10T01:29:37;6.03;;;5.38;;
57778;SDS011;43608;49.486;9.640;2023-06-10T01:30:15;6.22;;;5.63;;
57778;SDS011;43608;49.486;9.640;2023-06-10T01:30:56;6.47;;;5.72;;
57778;SDS011;43608;49.486;9.640;2023-06-10T01:32:26;5.90;;;5.20;;
57778;SDS011;43608;49.486;9.640;2023-06-10T01:33:04;6.05;;;5.38;;
57778;SDS011;43608;49.486;9.640;2023-06-10T01:33:41;6.57;;;5.32;;
57778;SDS011;43608;49.486;9.640;2023-06-10T01:34:16;5.90;;;5.30;;
57778;SDS011;43608;49.486;9.640;2023-06-10T01:34:48;5.90;;;5.30;;
57778;SDS011;43608;49.486;9.640;2023-06-10T01:35:20;5.38;;;4.88;;
57778;SDS011;43608;49.486;9.640;2023-06-10T01:35:58;5.95;;;5.20;;
57778;SDS011;43608;49.486;9.640;2023-06-10T01:36:28;5.60;;;5.10;;
57778;SDS011;43608;49.486;9.640;2023-06-10T01:37:01;5.45;;;4.88;;
57778;SDS011;43608;49.486;9.640;2023-06-10T01:37:33;5.30;;;4.80;;
57778;SDS011;43608;49.486;9.640;2023-06-10T01:38:05;5.75;;;5.15;;
57778;SDS011;43608;49.486;9.640;2023-06-10T01:38:38;5.50;;;5.00;;
57778;SDS011;43608;49.486;9.640;2023-06-10T01:39:12;5.93;;;5.20;;
57778;SDS011;43608;49.486;9.640;2023-06-10T01:39:45;5.80;;;4.97;;
57778;SDS011;43608;49.486;9.640;2023-06-10T01:40:16;5.40;;;4.90;;
57778;SDS011;43608;49.486;9.640;2023-06-10T01:40:48;5.43;;;4.93;;
57778;SDS011;43608;49.486;9.640;2023-06-10T01:41:19;5.22;;;4.72;;
57778;SDS011;43608;49.486;9.640;2023-06-10T01:41:52;5.20;;;4.70;;
57778;SDS011;43608;49.486;9.640;2023-06-10T01:42:22;5.10;;;4.60;;
57778;SDS011;43608;49.486;9.640;2023-06-10T01:42:53;5.53;;;5.03;;
57778;SDS011;43608;49.486;9.640;2023-06-10T01:43:23;5.07;;;4.57;;
57778;SDS011;43608;49.486;9.640;2023-06-10T01:43:54;5.15;;;4.65;;
57778;SDS011;43608;49.486;9.640;2023-06-10T01:44:25;5.30;;;4.80;;
57778;SDS011;43608;49.486;9.640;2023-06-10T01:44:55;4.93;;;4.40;;
57778;SDS011;43608;49.486;9.640;2023-06-10T01:45:26;5.43;;;4.80;;
57778;SDS011;43608;49.486;9.640;2023-06-10T01:45:56;4.90;;;4.40;;
57778;SDS011;43608;49.486;9.640;2023-06-10T01:46:26;5.20;;;4.70;;
57778;SDS011;43608;49.486;9.640;2023-06-10T01:46:57;5.68;;;5.03;;
57778;SDS011;43608;49.486;9.640;2023-06-10T01:47:27;5.00;;;4.47;;
57778;SDS011;43608;49.486;9.640;2023-06-10T01:47:58;5.03;;;4.53;;
57778;SDS011;43608;49.486;9.640;2023-06-10T01:48:28;4.78;;;4.28;;
57778;SDS011;43608;49.486;9.640;2023-06-10T01:48:58;4.95;;;4.43;;
57778;SDS011;43608;49.486;9.640;2023-06-10T01:49:28;5.70;;;4.53;;
57778;SDS011;43608;49.486;9.640;2023-06-10T01:49:59;4.90;;;4.40;;
57778;SDS011;43608;49.486;9.640;2023-06-10T01:50:29;4.90;;;4.40;;
57778;SDS011;43608;49.486;9.640;2023-06-10T01:51:00;5.00;;;4.47;;
57778;SDS011;43608;49.486;9.640;2023-06-10T01:51:30;5.32;;;4.80;;
57778;SDS011;43608;49.486;9.640;2023-06-10T01:52:01;5.32;;;4.68;;
57778;SDS011;43608;49.486;9.640;2023-06-10T01:52:32;4.88;;;4.38;;
57778;SDS011;43608;49.486;9.640;2023-06-10T01:53:03;5.85;;;4.32;;
57778;SDS011;43608;49.486;9.640;2023-06-10T01:53:33;4.97;;;4.47;;
57778;SDS011;43608;49.486;9.640;2023-06-10T01:54:04;4.88;;;4.40;;
57778;SDS011;43608;49.486;9.640;2023-06-10T01:54:35;4.43;;;4.03;;
57778;SDS011;43608;49.486;9.640;2023-06-10T01:55:05;4.82;;;4.40;;
57778;SDS011;43608;49.486;9.640;2023-06-10T01:55:36;4.88;;;4.38;;
57778;SDS011;43608;49.486;9.640;2023-06-10T01:56:06;4.65;;;4.25;;
57778;SDS011;43608;49.486;9.640;2023-06-10T01:56:37;4.90;;;4.40;;
57778;SDS011;43608;49.486;9.640;2023-06-10T01:57:07;4.82;;;4.32;;
57778;SDS011;43608;49.486;9.640;2023-06-10T01:57:37;5.25;;;4.75;;
57778;SDS011;43608;49.486;9.640;2023-06-10T01:58:08;5.07;;;4.57;;
57778;SDS011;43608;49.486;9.640;2023-06-10T01:58:38;5.07;;;4.57;;
57778;SDS011;43608;49.486;9.640;2023-06-10T01:59:08;5.18;;;4.68;;
57778;SDS011;43608;49.486;9.640;2023-06-10T01:59:39;4.82;;;4.38;;
57778;SDS011;43608;49.486;9.640;2023-06-10T02:00:09;5.22;;;4.60;;
57778;SDS011;43608;49.486;9.640;2023-06-10T02:00:40;4.85;;;4.35;;
57778;SDS011;43608;49.486;9.640;2023-06-10T02:01:11;5.20;;;4.70;;
57778;SDS011;43608;49.486;9.640;2023-06-10T02:01:41;5.03;;;4.43;;
57778;SDS011;43608;49.486;9.640;2023-06-10T02:02:11;5.05;;;4.53;;
57778;SDS011;43608;49.486;9.640;2023-06-10T02:02:42;4.70;;;4.30;;
57778;SDS011;43608;49.486;9.640;2023-06-10T02:03:12;4.97;;;4.47;;
57778;SDS011;43608;49.486;9.640;2023-06-10T02:03:43;5.05;;;4.50;;
57778;SDS011;43608;49.486;9.640;2023-06-10T02:04:13;5.00;;;4.50;;
57778;SDS011;43608;49.486;9.640;2023-06-10T02:04:43;5.10;;;4.60;;
57778;SDS011;43608;49.486;9.640;2023-06-10T02:05:14;5.03;;;4.53;;
57778;SDS011;43608;49.486;9.640;2023-06-10T02:05:44;4.90;;;4.35;;
57778;SDS011;43608;49.486;9.640;2023-06-10T02:06:15;5.00;;;4.50;;
57778;SDS011;43608;49.486;9.640;2023-06-10T02:06:45;5.43;;;4.55;;
57778;SDS011;43608;49.486;9.640;2023-06-10T02:07:15;5.10;;;4.60;;
57778;SDS011;43608;49.486;9.640;2023-06-10T02:07:46;4.65;;;4.25;;
57778;SDS011;43608;49.486;9.640;2023-06-10T02:08:16;4.80;;;4.30;;
57778;SDS011;43608;49.486;9.640;2023-06-10T02:08:46;5.00;;;4.50;;
57778;SDS011;43608;49.486;9.640;2023-06-10T02:09:17;5.20;;;4.70;;
57778;SDS011;43608;49.486;9.640;2023-06-10T02:09:48;5.60;;;4.50;;
57778;SDS011;43608;49.486;9.640;2023-06-10T02:10:19;4.65;;;4.25;;
57778;SDS011;43608;49.486;9.640;2023-06-10T02:10:49;4.55;;;4.15;;
57778;SDS011;43608;49.486;9.640;2023-06-10T02:11:20;4.93;;;4.43;;
57778;SDS011;43608;49.486;9.640;2023-06-10T02:11:50;4.88;;;4.45;;
57778;SDS011;43608;49.486;9.640;2023-06-10T02:12:20;4.65;;;4.25;;
57778;SDS011;43608;49.486;9.640;2023-06-10T02:12:51;4.95;;;4.45;;
57778;SDS011;43608;49.486;9.640;2023-06-10T02:13:21;5.05;;;4.53;;
57778;SDS011;43608;49.486;9.640;2023-06-10T02:13:51;4.90;;;4.40;;
57778;SDS011;43608;49.486;9.640;2023-06-10T02:14:22;5.82;;;4.38;;
57778;SDS011;43608;49.486;9.640;2023-06-10T02:14:52;4.60;;;4.10;;
57778;SDS011;43608;49.486;9.640;2023-06-10T02:15:23;4.63;;;4.22;;
57778;SDS011;43608;49.486;9.640;2023-06-10T02:15:53;4.70;;;4.20;;
57778;SDS011;43608;49.486;9.640;2023-06-10T02:16:24;4.68;;;4.18;;
57778;SDS011;43608;49.486;9.640;2023-06-10T02:16:54;5.13;;;4.40;;
57778;SDS011;43608;49.486;9.640;2023-06-10T02:17:26;4.93;;;4.43;;
57778;SDS011;43608;49.486;9.640;2023-06-10T02:17:56;4.90;;;4.40;;
57778;SDS011;43608;49.486;9.640;2023-06-10T02:18:28;4.70;;;4.30;;
57778;SDS011;43608;49.486;9.640;2023-06-10T02:18:58;4.72;;;4.22;;
57778;SDS011;43608;49.486;9.640;2023-06-10T02:19:30;4.72;;;4.30;;
57778;SDS011;43608;49.486;9.640;2023-06-10T02:20:00;4.90;;;4.30;;
57778;SDS011;43608;49.486;9.640;2023-06-10T02:20:36;4.88;;;4.32;;
57778;SDS011;43608;49.486;9.640;2023-06-10T02:21:06;4.70;;;4.20;;
57778;SDS011;43608;49.486;9.640;2023-06-10T02:21:37;5.05;;;4.55;;
57778;SDS011;43608;49.486;9.640;2023-06-10T02:22:07;5.63;;;4.65;;
57778;SDS011;43608;49.486;9.640;2023-06-10T02:22:39;4.90;;;4.40;;
57778;SDS011;43608;49.486;9.640;2023-06-10T02:23:10;5.22;;;4.72;;
57778;SDS011;43608;49.486;9.640;2023-06-10T02:23:40;5.05;;;4.55;;
57778;SDS011;43608;49.486;9.640;2023-06-10T02:24:11;4.75;;;4.30;;
57778;SDS011;43608;49.486;9.640;2023-06-10T02:24:41;4.63;;;4.22;;
57778;SDS011;43608;49.486;9.640;2023-06-10T02:25:12;5.00;;;4.50;;
57778;SDS011;43608;49.486;9.640;2023-06-10T02:25:42;5.07;;;4.57;;
57778;SDS011;43608;49.486;9.640;2023-06-10T02:26:13;4.82;;;4.32;;
57778;SDS011;43608;49.486;9.640;2023-06-10T02:26:43;4.85;;;4.35;;
57778;SDS011;43608;49.486;9.640;2023-06-10T02:27:14;5.00;;;4.50;;
57778;SDS011;43608;49.486;9.640;2023-06-10T02:27:48;5.00;;;4.50;;
57778;SDS011;43608;49.486;9.640;2023-06-10T02:28:18;4.72;;;4.10;;
57778;SDS011;43608;49.486;9.640;2023-06-10T02:28:48;4.80;;;4.30;;
57778;SDS011;43608;49.486;9.640;2023-06-10T02:29:19;4.97;;;4.40;;
57778;SDS011;43608;49.486;9.640;2023-06-10T02:29:50;5.03;;;4.53;;
57778;SDS011;43608;49.486;9.640;2023-06-10T02:30:20;4.85;;;4.35;;
57778;SDS011;43608;49.486;9.640;2023-06-10T02:30:51;4.80;;;4.15;;
57778;SDS011;43608;49.486;9.640;2023-06-10T02:31:21;4.85;;;4.38;;
57778;SDS011;43608;49.486;9.640;2023-06-10T02:31:54;4.72;;;4.22;;
57778;SDS011;43608;49.486;9.640;2023-06-10T02:32:24;5.05;;;4.47;;
57778;SDS011;43608;49.486;9.640;2023-06-10T02:32:55;5.18;;;4.63;;
57778;SDS011;43608;49.486;9.640;2023-06-10T02:33:26;4.70;;;4.30;;
57778;SDS011;43608;49.486;9.640;2023-06-10T02:33:57;4.78;;;4.30;;
57778;SDS011;43608;49.486;9.640;2023-06-10T02:34:27;4.38;;;3.97;;
57778;SDS011;43608;49.486;9.640;2023-06-10T02:34:58;4.57;;;4.13;;
57778;SDS011;43608;49.486;9.640;2023-06-10T02:35:30;5.00;;;4.50;;
57778;SDS011;43608;49.486;9.640;2023-06-10T02:36:00;5.10;;;4.60;;
57778;SDS011;43608;49.486;9.640;2023-06-10T02:36:30;4.88;;;4.38;;
57778;SDS011;43608;49.486;9.640;2023-06-10T02:37:01;4.90;;;4.40;;
57778;SDS011;43608;49.486;9.640;2023-06-10T02:37:32;5.10;;;4.47;;
57778;SDS011;43608;49.486;9.640;2023-06-10T02:38:02;6.00;;;4.30;;
57778;SDS011;43608;49.486;9.640;2023-06-10T02:38:33;4.90;;;4.40;;
57778;SDS011;43608;49.486;9.640;2023-06-10T02:39:03;4.95;;;4.40;;
57778;SDS011;43608;49.486;9.640;2023-06-10T02:39:34;4.82;;;4.28;;
57778;SDS011;43608;49.486;9.640;2023-06-10T02:40:04;4.88;;;4.32;;
57778;SDS011;43608;49.486;9.640;2023-06-10T02:40:36;4.88;;;4.38;;
57778;SDS011;43608;49.486;9.640;2023-06-10T02:41:06;5.03;;;4.47;;
57778;SDS011;43608;49.486;9.640;2023-06-10T02:41:36;4.72;;;4.22;;
57778;SDS011;43608;49.486;9.640;2023-06-10T02:42:07;4.60;;;4.15;;
57778;SDS011;43608;49.486;9.640;2023-06-10T02:42:38;4.70;;;4.20;;
57778;SDS011;43608;49.486;9.640;2023-06-10T02:43:08;4.85;;;4.35;;
57778;SDS011;43608;49.486;9.640;2023-06-10T02:43:39;4.80;;;4.30;;
57778;SDS011;43608;49.486;9.640;2023-06-10T02:44:09;5.10;;;4.60;;
57778;SDS011;43608;49.486;9.640;2023-06-10T02:44:39;4.85;;;4.32;;
57778;SDS011;43608;49.486;9.640;2023-06-10T02:45:10;5.28;;;4.78;;
57778;SDS011;43608;49.486;9.640;2023-06-10T02:45:40;5.18;;;4.65;;
57778;SDS011;43608;49.486;9.640;2023-06-10T02:46:11;5.22;;;4.70;;
57778;SDS011;43608;49.486;9.640;2023-06-10T02:46:41;5.45;;;4.53;;
57778;SDS011;43608;49.486;9.640;2023-06-10T02:47:11;5.90;;;4.40;;
57778;SDS011;43608;49.486;9.640;2023-06-10T02:47:42;4.97;;;4.43;;
57778;SDS011;43608;49.486;9.640;2023-06-10T02:48:12;5.28;;;4.70;;
57778;SDS011;43608;49.486;9.640;2023-06-10T02:48:43;5.30;;;4.78;;
57778;SDS011;43608;49.486;9.640;2023-06-10T02:49:16;5.22;;;4.60;;
57778;SDS011;43608;49.486;9.640;2023-06-10T02:49:46;5.07;;;4.57;;
57778;SDS011;43608;49.486;9.640;2023-06-10T02:50:17;4.80;;;4.30;;
57778;SDS011;43608;49.486;9.640;2023-06-10T02:50:47;4.95;;;4.40;;
57778;SDS011;43608;49.486;9.640;2023-06-10T02:51:18;4.50;;;4.10;;
57778;SDS011;43608;49.486;9.640;2023-06-10T02:51:49;5.00;;;4.50;;
57778;SDS011;43608;49.486;9.640;2023-06-10T02:52:23;4.20;;;3.80;;
57778;SDS011;43608;49.486;9.640;2023-06-10T02:52:53;6.07;;;4.43;;
57778;SDS011;43608;49.486;9.640;2023-06-10T02:53:24;4.45;;;4.05;;
57778;SDS011;43608;49.486;9.640;2023-06-10T02:53:54;4.60;;;4.20;;
57778;SDS011;43608;49.486;9.640;2023-06-10T02:54:24;4.40;;;4.00;;
57778;SDS011;43608;49.486;9.640;2023-06-10T02:54:55;4.80;;;4.28;;
57778;SDS011;43608;49.486;9.640;2023-06-10T02:55:25;4.80;;;4.20;;
57778;SDS011;43608;49.486;9.640;2023-06-10T02:55:56;4.70;;;4.20;;
57778;SDS011;43608;49.486;9.640;2023-06-10T02:56:26;4.57;;;4.07;;
57778;SDS011;43608;49.486;9.640;2023-06-10T02:56:57;4.10;;;3.70;;
57778;SDS011;43608;49.486;9.640;2023-06-10T02:57:27;4.70;;;4.20;;
57778;SDS011;43608;49.486;9.640;2023-06-10T02:57:57;4.47;;;4.07;;
57778;SDS011;43608;49.486;9.640;2023-06-10T02:58:29;4.43;;;4.03;;
57778;SDS011;43608;49.486;9.640;2023-06-10T02:58:59;4.50;;;4.10;;
57778;SDS011;43608;49.486;9.640;2023-06-10T02:59:30;4.50;;;4.00;;
57778;SDS011;43608;49.486;9.640;2023-06-10T03:00:00;4.65;;;4.22;;
57778;SDS011;43608;49.486;9.640;2023-06-10T03:00:40;4.50;;;3.92;;
57778;SDS011;43608;49.486;9.640;2023-06-10T03:01:12;5.05;;;4.30;;
57778;SDS011;43608;49.486;9.640;2023-06-10T03:01:42;4.72;;;4.25;;
57778;SDS011;43608;49.486;9.640;2023-06-10T03:02:13;4.40;;;4.00;;
57778;SDS011;43608;49.486;9.640;2023-06-10T03:02:43;4.50;;;4.10;;
57778;SDS011;43608;49.486;9.640;2023-06-10T03:03:15;4.43;;;4.03;;
57778;SDS011;43608;49.486;9.640;2023-06-10T03:03:46;4.43;;;4.03;;
57778;SDS011;43608;49.486;9.640;2023-06-10T03:04:16;4.65;;;4.15;;
57778;SDS011;43608;49.486;9.640;2023-06-10T03:04:47;4.80;;;4.30;;
57778;SDS011;43608;49.486;9.640;2023-06-10T03:05:17;4.60;;;4.10;;
57778;SDS011;43608;49.486;9.640;2023-06-10T03:05:48;4.50;;;4.10;;
57778;SDS011;43608;49.486;9.640;2023-06-10T03:06:18;4.55;;;4.05;;
57778;SDS011;43608;49.486;9.640;2023-06-10T03:06:49;4.80;;;4.20;;
57778;SDS011;43608;49.486;9.640;2023-06-10T03:07:19;4.57;;;4.18;;
57778;SDS011;43608;49.486;9.640;2023-06-10T03:07:50;5.13;;;4.63;;
57778;SDS011;43608;49.486;9.640;2023-06-10T03:08:20;5.28;;;4.15;;
57778;SDS011;43608;49.486;9.640;2023-06-10T03:08:51;4.53;;;4.13;;
57778;SDS011;43608;49.486;9.640;2023-06-10T03:09:21;4.50;;;4.10;;
57778;SDS011;43608;49.486;9.640;2023-06-10T03:09:52;4.53;;;4.13;;
57778;SDS011;43608;49.486;9.640;2023-06-10T03:10:22;4.68;;;4.15;;
57778;SDS011;43608;49.486;9.640;2023-06-10T03:10:52;4.78;;;4.38;;
57778;SDS011;43608;49.486;9.640;2023-06-10T03:11:23;4.70;;;4.20;;
57778;SDS011;43608;49.486;9.640;2023-06-10T03:11:53;4.53;;;4.10;;
57778;SDS011;43608;49.486;9.640;2023-06-10T03:12:23;4.50;;;4.10;;
57778;SDS011;43608;49.486;9.640;2023-06-10T03:12:54;4.68;;;4.28;;